createdAt,value
2018-02-25T00:00:10.155Z,1017.08
2018-02-25T00:01:10.143Z,1017.07
2018-02-25T00:02:10.118Z,1017.08
2018-02-25T00:03:10.117Z,1017.07
2018-02-25T00:04:10.102Z,1017.08
2018-02-25T00:05:10.092Z,1017.07
2018-02-25T00:06:10.077Z,1017.02
2018-02-25T00:07:10.061Z,1016.99
2018-02-25T00:08:10.050Z,1017.00
2018-02-25T00:09:10.036Z,1017.05
2018-02-25T00:10:10.026Z,1016.97
2018-02-25T00:11:10.011Z,1017.06
2018-02-25T00:12:09.997Z,1017.04
2018-02-25T00:13:09.986Z,1017.06
2018-02-25T00:14:09.975Z,1017.09
2018-02-25T00:15:09.955Z,1017.09
2018-02-25T00:16:09.945Z,1017.04
2018-02-25T00:17:09.934Z,1017.05
2018-02-25T00:18:09.922Z,1017.03
2018-02-25T00:19:09.907Z,1017.04
2018-02-25T00:20:09.890Z,1017.11
2018-02-25T00:21:09.883Z,1017.01
2018-02-25T00:22:09.868Z,1017.08
2018-02-25T00:23:09.855Z,1017.01
2018-02-25T00:24:09.842Z,1017.09
2018-02-25T00:25:09.828Z,1017.03
2018-02-25T00:26:09.816Z,1017.05
2018-02-25T00:27:09.806Z,1017.04
2018-02-25T00:28:09.792Z,1017.07
2018-02-25T00:29:09.778Z,1017.08
2018-02-25T00:30:09.762Z,1017.11
2018-02-25T00:31:09.763Z,1017.06
2018-02-25T00:32:09.738Z,1017.06
2018-02-25T00:33:09.725Z,1017.06
2018-02-25T00:34:09.712Z,1017.03
2018-02-25T00:35:09.699Z,1017.00
2018-02-25T00:36:09.693Z,1017.07
2018-02-25T00:37:09.675Z,1017.04
2018-02-25T00:38:09.661Z,1017.06
2018-02-25T00:39:09.649Z,1017.01
2018-02-25T00:40:09.635Z,1017.00
2018-02-25T00:41:09.624Z,1016.99
2018-02-25T00:42:09.614Z,1016.97
2018-02-25T00:43:09.596Z,1017.03
2018-02-25T00:44:09.584Z,1017.01
2018-02-25T00:45:09.572Z,1017.05
2018-02-25T00:46:09.559Z,1017.04
2018-02-25T00:47:09.578Z,1017.06
2018-02-25T00:48:09.536Z,1017.02
2018-02-25T00:49:09.518Z,1017.06
2018-02-25T00:50:09.506Z,1017.00
2018-02-25T00:51:09.495Z,1016.99
2018-02-25T00:52:09.488Z,1017.00
2018-02-25T00:53:09.468Z,1017.01
2018-02-25T00:54:09.455Z,1016.99
2018-02-25T00:55:09.443Z,1017.01
2018-02-25T00:56:09.429Z,1016.99
2018-02-25T00:57:09.418Z,1017.07
2018-02-25T00:58:09.403Z,1017.05
2018-02-25T00:59:09.388Z,1017.01
2018-02-25T01:00:09.381Z,1017.10
2018-02-25T01:01:09.369Z,1017.11
2018-02-25T01:02:09.356Z,1017.12
2018-02-25T01:03:09.342Z,1017.17
2018-02-25T01:04:09.328Z,1017.16
2018-02-25T01:05:09.319Z,1017.16
2018-02-25T01:06:09.304Z,1017.21
2018-02-25T01:07:09.284Z,1017.18
2018-02-25T01:08:09.278Z,1017.20
2018-02-25T01:09:09.262Z,1017.21
2018-02-25T01:10:09.252Z,1017.22
2018-02-25T01:11:09.236Z,1017.27
2018-02-25T01:12:09.223Z,1017.27
2018-02-25T01:13:09.214Z,1017.31
2018-02-25T01:14:09.204Z,1017.29
2018-02-25T01:15:09.188Z,1017.32
2018-02-25T01:16:09.173Z,1017.32
2018-02-25T01:17:09.158Z,1017.35
2018-02-25T01:18:09.149Z,1017.31
2018-02-25T01:19:09.136Z,1017.31
2018-02-25T01:20:09.121Z,1017.35
2018-02-25T01:21:09.105Z,1017.33
2018-02-25T01:22:09.098Z,1017.33
2018-02-25T01:23:09.082Z,1017.33
2018-02-25T01:24:09.089Z,1017.33
2018-02-25T01:25:09.060Z,1017.35
2018-02-25T01:26:09.046Z,1017.29
2018-02-25T01:27:09.028Z,1017.28
2018-02-25T01:28:09.020Z,1017.26
2018-02-25T01:29:09.007Z,1017.27
2018-02-25T01:30:08.997Z,1017.25
2018-02-25T01:31:08.979Z,1017.26
2018-02-25T01:32:08.967Z,1017.28
2018-02-25T01:33:08.955Z,1017.28
2018-02-25T01:34:08.946Z,1017.29
2018-02-25T01:35:08.975Z,1017.27
2018-02-25T01:36:08.940Z,1017.25
2018-02-25T01:37:08.904Z,1017.28
2018-02-25T01:38:08.893Z,1017.29
2018-02-25T01:39:08.875Z,1017.28
2018-02-25T01:40:08.864Z,1017.30
2018-02-25T01:41:08.853Z,1017.27
2018-02-25T01:42:08.834Z,1017.27
2018-02-25T01:43:08.828Z,1017.27
2018-02-25T01:44:08.821Z,1017.23
2018-02-25T01:45:08.841Z,1017.22
2018-02-25T01:46:08.782Z,1017.23
2018-02-25T01:47:08.775Z,1017.21
2018-02-25T01:48:08.748Z,1017.23
2018-02-25T01:49:08.748Z,1017.18
2018-02-25T01:50:08.737Z,1017.21
2018-02-25T01:51:08.724Z,1017.18
2018-02-25T01:52:08.711Z,1017.20
2018-02-25T01:53:08.699Z,1017.11
2018-02-25T01:54:08.682Z,1017.19
2018-02-25T01:55:08.669Z,1017.22
2018-02-25T01:56:08.663Z,1017.22
2018-02-25T01:57:08.643Z,1017.18
2018-02-25T01:58:08.628Z,1017.17
2018-02-25T01:59:08.617Z,1017.16
2018-02-25T02:00:08.613Z,1017.16
2018-02-25T02:01:08.604Z,1017.16
2018-02-25T02:02:08.584Z,1017.17
2018-02-25T02:03:08.564Z,1017.12
2018-02-25T02:04:08.552Z,1017.17
2018-02-25T02:05:08.540Z,1017.10
2018-02-25T02:06:08.527Z,1017.08
2018-02-25T02:07:08.518Z,1017.12
2018-02-25T02:08:08.498Z,1017.10
2018-02-25T02:09:08.486Z,1017.14
2018-02-25T02:10:08.475Z,1017.14
2018-02-25T02:11:08.460Z,1017.15
2018-02-25T02:12:08.446Z,1017.18
2018-02-25T02:13:08.436Z,1017.13
2018-02-25T02:14:08.426Z,1017.11
2018-02-25T02:15:08.408Z,1017.15
2018-02-25T02:16:08.394Z,1017.19
2018-02-25T02:17:08.381Z,1017.22
2018-02-25T02:18:08.373Z,1017.15
2018-02-25T02:19:08.363Z,1017.20
2018-02-25T02:20:08.341Z,1017.15
2018-02-25T02:21:08.330Z,1017.21
2018-02-25T02:22:08.316Z,1017.21
2018-02-25T02:23:08.302Z,1017.26
2018-02-25T02:24:08.293Z,1017.21
2018-02-25T02:25:08.278Z,1017.20
2018-02-25T02:26:08.267Z,1017.24
2018-02-25T02:27:08.251Z,1017.25
2018-02-25T02:28:08.264Z,1017.30
2018-02-25T02:29:08.225Z,1017.23
2018-02-25T02:30:08.211Z,1017.24
2018-02-25T02:31:08.201Z,1017.23
2018-02-25T02:32:08.201Z,1017.22
2018-02-25T02:33:08.168Z,1017.26
2018-02-25T02:34:08.166Z,1017.24
2018-02-25T02:35:08.168Z,1017.21
2018-02-25T02:36:08.139Z,1017.20
2018-02-25T02:37:08.116Z,1017.25
2018-02-25T02:38:08.104Z,1017.21
2018-02-25T02:39:08.088Z,1017.23
2018-02-25T02:40:08.079Z,1017.21
2018-02-25T02:41:08.064Z,1017.20
2018-02-25T02:42:08.056Z,1017.20
2018-02-25T02:43:08.041Z,1017.28
2018-02-25T02:44:08.022Z,1017.21
2018-02-25T02:45:08.013Z,1017.23
2018-02-25T02:46:07.999Z,1017.21
2018-02-25T02:47:07.984Z,1017.26
2018-02-25T02:48:07.966Z,1017.24
2018-02-25T02:49:07.953Z,1017.23
2018-02-25T02:50:07.942Z,1017.31
2018-02-25T02:51:07.933Z,1017.27
2018-02-25T02:52:07.916Z,1017.31
2018-02-25T02:53:07.905Z,1017.35
2018-02-25T02:54:07.890Z,1017.36
2018-02-25T02:55:07.878Z,1017.36
2018-02-25T02:56:07.862Z,1017.38
2018-02-25T02:57:07.851Z,1017.32
2018-02-25T02:58:07.836Z,1017.29
2018-02-25T02:59:07.824Z,1017.35
2018-02-25T03:00:07.808Z,1017.36
2018-02-25T03:01:07.797Z,1017.38
2018-02-25T03:02:07.783Z,1017.39
2018-02-25T03:03:07.787Z,1017.42
2018-02-25T03:04:07.757Z,1017.42
2018-02-25T03:05:07.744Z,1017.37
2018-02-25T03:06:07.732Z,1017.37
2018-02-25T03:07:07.717Z,1017.35
2018-02-25T03:08:07.701Z,1017.39
2018-02-25T03:09:07.690Z,1017.36
2018-02-25T03:10:08.508Z,1017.36
2018-02-25T03:11:07.670Z,1017.34
2018-02-25T03:12:07.648Z,1017.32
2018-02-25T03:13:07.631Z,1017.31
2018-02-25T03:14:07.621Z,1017.32
2018-02-25T03:15:07.604Z,1017.29
2018-02-25T03:16:07.597Z,1017.25
2018-02-25T03:17:07.587Z,1017.22
2018-02-25T03:18:07.574Z,1017.28
2018-02-25T03:19:07.556Z,1017.27
2018-02-25T03:20:07.533Z,1017.26
2018-02-25T03:21:07.528Z,1017.22
2018-02-25T03:22:07.518Z,1017.25
2018-02-25T03:23:07.501Z,1017.24
2018-02-25T03:24:07.489Z,1017.24
2018-02-25T03:25:07.475Z,1017.28
2018-02-25T03:26:07.462Z,1017.31
2018-02-25T03:27:07.462Z,1017.32
2018-02-25T03:28:07.434Z,1017.25
2018-02-25T03:29:07.420Z,1017.24
2018-02-25T03:30:07.409Z,1017.25
2018-02-25T03:31:07.393Z,1017.29
2018-02-25T03:32:07.370Z,1017.31
2018-02-25T03:33:07.366Z,1017.39
2018-02-25T03:34:07.353Z,1017.37
2018-02-25T03:35:07.337Z,1017.40
2018-02-25T03:36:07.327Z,1017.36
2018-02-25T03:37:07.318Z,1017.46
2018-02-25T03:38:07.299Z,1017.40
2018-02-25T03:39:07.288Z,1017.44
2018-02-25T03:40:07.271Z,1017.39
2018-02-25T03:41:07.263Z,1017.39
2018-02-25T03:42:07.248Z,1017.46
2018-02-25T03:43:07.234Z,1017.41
2018-02-25T03:44:07.221Z,1017.39
2018-02-25T03:45:07.205Z,1017.46
2018-02-25T03:46:07.192Z,1017.47
2018-02-25T03:47:07.181Z,1017.51
2018-02-25T03:48:07.166Z,1017.54
2018-02-25T03:49:07.151Z,1017.58
2018-02-25T03:50:07.136Z,1017.60
2018-02-25T03:51:07.122Z,1017.63
2018-02-25T03:52:07.113Z,1017.62
2018-02-25T03:53:07.101Z,1017.56
2018-02-25T03:54:07.088Z,1017.64
2018-02-25T03:55:07.067Z,1017.62
2018-02-25T03:56:07.056Z,1017.68
2018-02-25T03:57:07.043Z,1017.60
2018-02-25T03:58:07.035Z,1017.62
2018-02-25T03:59:07.017Z,1017.63
2018-02-25T04:00:06.999Z,1017.62
2018-02-25T04:01:06.986Z,1017.66
2018-02-25T04:02:06.979Z,1017.66
2018-02-25T04:03:06.973Z,1017.62
2018-02-25T04:04:06.950Z,1017.70
2018-02-25T04:05:06.936Z,1017.70
2018-02-25T04:06:06.921Z,1017.70
2018-02-25T04:07:06.905Z,1017.67
2018-02-25T04:08:06.895Z,1017.69
2018-02-25T04:09:06.883Z,1017.72
2018-02-25T04:10:06.869Z,1017.70
2018-02-25T04:11:06.857Z,1017.73
2018-02-25T04:12:06.848Z,1017.75
2018-02-25T04:13:06.832Z,1017.74
2018-02-25T04:14:06.815Z,1017.77
2018-02-25T04:15:06.803Z,1017.76
2018-02-25T04:16:06.785Z,1017.75
2018-02-25T04:17:06.776Z,1017.78
2018-02-25T04:18:06.758Z,1017.84
2018-02-25T04:19:06.749Z,1017.83
2018-02-25T04:20:06.733Z,1017.82
2018-02-25T04:21:06.718Z,1017.85
2018-02-25T04:22:06.703Z,1017.79
2018-02-25T04:23:06.692Z,1017.82
2018-02-25T04:24:06.678Z,1017.87
2018-02-25T04:25:06.664Z,1017.85
2018-02-25T04:26:06.648Z,1017.83
2018-02-25T04:27:06.637Z,1017.86
2018-02-25T04:28:06.625Z,1017.85
2018-02-25T04:29:06.608Z,1017.90
2018-02-25T04:30:06.595Z,1017.90
2018-02-25T04:31:06.583Z,1017.90
2018-02-25T04:32:06.572Z,1017.93
2018-02-25T04:33:06.558Z,1017.92
2018-02-25T04:34:06.544Z,1017.91
2018-02-25T04:35:06.531Z,1017.92
2018-02-25T04:36:06.515Z,1017.91
2018-02-25T04:37:06.500Z,1017.97
2018-02-25T04:38:06.491Z,1017.95
2018-02-25T04:39:06.496Z,1017.93
2018-02-25T04:40:06.464Z,1017.99
2018-02-25T04:41:06.448Z,1017.97
2018-02-25T04:42:06.437Z,1017.96
2018-02-25T04:43:06.425Z,1017.97
2018-02-25T04:44:06.412Z,1018.01
2018-02-25T04:45:06.397Z,1018.04
2018-02-25T04:46:06.383Z,1017.99
2018-02-25T04:47:06.374Z,1018.05
2018-02-25T04:48:06.357Z,1018.03
2018-02-25T04:49:06.342Z,1018.05
2018-02-25T04:50:06.328Z,1018.05
2018-02-25T04:51:06.319Z,1018.04
2018-02-25T04:52:06.298Z,1018.05
2018-02-25T04:53:06.287Z,1018.02
2018-02-25T04:54:06.271Z,1018.04
2018-02-25T04:55:06.256Z,1018.04
2018-02-25T04:56:06.246Z,1018.07
2018-02-25T04:57:06.232Z,1018.01
2018-02-25T04:58:06.221Z,1018.02
2018-02-25T04:59:06.206Z,1017.99
2018-02-25T05:00:06.192Z,1018.09
2018-02-25T05:01:06.182Z,1018.09
2018-02-25T05:02:06.163Z,1018.04
2018-02-25T05:03:06.153Z,1018.04
2018-02-25T05:04:06.137Z,1018.09
2018-02-25T05:05:06.122Z,1018.10
2018-02-25T05:06:06.108Z,1018.07
2018-02-25T05:07:06.094Z,1018.15
2018-02-25T05:08:06.082Z,1018.07
2018-02-25T05:09:06.115Z,1018.11
2018-02-25T05:10:06.054Z,1018.15
2018-02-25T05:11:06.042Z,1018.15
2018-02-25T05:12:06.025Z,1018.13
2018-02-25T05:13:06.012Z,1018.15
2018-02-25T05:14:05.999Z,1018.18
2018-02-25T05:15:05.985Z,1018.17
2018-02-25T05:16:05.973Z,1018.20
2018-02-25T05:17:05.957Z,1018.17
2018-02-25T05:18:05.943Z,1018.21
2018-02-25T05:19:05.939Z,1018.20
2018-02-25T05:20:05.917Z,1018.20
2018-02-25T05:21:05.904Z,1018.23
2018-02-25T05:22:05.890Z,1018.27
2018-02-25T05:23:05.876Z,1018.24
2018-02-25T05:24:05.864Z,1018.27
2018-02-25T05:25:05.849Z,1018.24
2018-02-25T05:26:05.835Z,1018.24
2018-02-25T05:27:05.819Z,1018.32
2018-02-25T05:28:05.806Z,1018.29
2018-02-25T05:29:05.792Z,1018.28
2018-02-25T05:30:05.778Z,1018.31
2018-02-25T05:31:05.771Z,1018.35
2018-02-25T05:32:05.752Z,1018.33
2018-02-25T05:33:05.735Z,1018.40
2018-02-25T05:34:05.721Z,1018.37
2018-02-25T05:35:05.711Z,1018.36
2018-02-25T05:36:05.692Z,1018.36
2018-02-25T05:37:05.677Z,1018.36
2018-02-25T05:38:05.662Z,1018.34
2018-02-25T05:39:05.655Z,1018.40
2018-02-25T05:40:05.638Z,1018.41
2018-02-25T05:41:05.622Z,1018.36
2018-02-25T05:43:05.711Z,1018.40
2018-02-25T05:44:05.712Z,1018.44
2018-02-25T05:45:05.680Z,1018.45
2018-02-25T05:46:05.668Z,1018.47
2018-02-25T05:47:05.678Z,1018.50
2018-02-25T05:48:05.640Z,1018.52
2018-02-25T05:49:26.625Z,1018.52
2018-02-25T05:50:05.621Z,1018.54
2018-02-25T05:51:05.599Z,1018.57
2018-02-25T05:52:05.592Z,1018.57
2018-02-25T05:53:05.567Z,1018.55
2018-02-25T05:54:05.551Z,1018.58
2018-02-25T05:55:26.551Z,1018.60
2018-02-25T05:56:05.532Z,1018.60
2018-02-25T05:57:05.516Z,1018.63
2018-02-25T05:58:05.498Z,1018.60
2018-02-25T05:59:05.484Z,1018.61
2018-02-25T06:00:05.470Z,1018.61
2018-02-25T06:01:26.459Z,1018.65
2018-02-25T06:02:05.466Z,1018.65
2018-02-25T06:03:05.434Z,1018.66
2018-02-25T06:04:05.413Z,1018.66
2018-02-25T06:05:05.397Z,1018.65
2018-02-25T06:06:05.389Z,1018.70
2018-02-25T06:07:26.378Z,1018.73
2018-02-25T06:08:05.366Z,1018.74
2018-02-25T06:09:05.344Z,1018.74
2018-02-25T06:10:05.340Z,1018.74
2018-02-25T06:11:05.326Z,1018.78
2018-02-25T06:12:05.308Z,1018.79
2018-02-25T06:13:26.294Z,1018.82
2018-02-25T06:14:05.282Z,1018.82
2018-02-25T06:15:05.265Z,1018.86
2018-02-25T06:16:05.248Z,1018.87
2018-02-25T06:17:05.238Z,1018.84
2018-02-25T06:18:05.223Z,1018.83
2018-02-25T06:19:26.206Z,1018.80
2018-02-25T06:20:05.194Z,1018.84
2018-02-25T06:21:05.182Z,1018.84
2018-02-25T06:22:05.173Z,1018.84
2018-02-25T06:23:05.164Z,1018.81
2018-02-25T06:24:05.142Z,1018.82
2018-02-25T06:25:26.132Z,1018.82
2018-02-25T06:26:05.108Z,1018.83
2018-02-25T06:27:06.236Z,1018.82
2018-02-25T06:28:05.082Z,1018.83
2018-02-25T06:29:05.083Z,1018.86
2018-02-25T06:30:05.056Z,1018.86
2018-02-25T06:31:26.061Z,1018.80
2018-02-25T06:32:05.029Z,1018.79
2018-02-25T06:33:05.019Z,1018.86
2018-02-25T06:34:05.023Z,1018.84
2018-02-25T06:35:05.012Z,1018.89
2018-02-25T06:36:05.021Z,1018.83
2018-02-25T06:37:25.964Z,1018.80
2018-02-25T06:38:04.953Z,1018.83
2018-02-25T06:39:04.957Z,1018.84
2018-02-25T06:40:04.940Z,1018.84
2018-02-25T06:41:04.918Z,1018.83
2018-02-25T06:42:04.931Z,1018.83
2018-02-25T06:43:25.884Z,1018.83
2018-02-25T06:44:04.887Z,1018.79
2018-02-25T06:45:04.873Z,1018.80
2018-02-25T06:46:04.868Z,1018.82
2018-02-25T06:47:04.832Z,1018.87
2018-02-25T06:48:04.818Z,1018.86
2018-02-25T06:49:25.793Z,1018.83
2018-02-25T06:50:04.783Z,1018.86
2018-02-25T06:51:04.772Z,1018.85
2018-02-25T06:52:04.753Z,1018.86
2018-02-25T06:53:04.744Z,1018.86
2018-02-25T06:54:04.741Z,1018.91
2018-02-25T06:55:25.721Z,1018.90
2018-02-25T06:56:04.712Z,1018.93
2018-02-25T06:57:04.687Z,1018.90
2018-02-25T06:58:05.258Z,1018.98
2018-02-25T06:59:04.665Z,1019.00
2018-02-25T07:00:04.631Z,1019.00
2018-02-25T07:01:25.647Z,1018.97
2018-02-25T07:02:04.613Z,1018.95
2018-02-25T07:03:04.604Z,1018.97
2018-02-25T07:04:04.595Z,1018.99
2018-02-25T07:05:04.598Z,1018.97
2018-02-25T07:06:04.582Z,1019.02
2018-02-25T07:07:25.551Z,1018.97
2018-02-25T07:08:05.238Z,1018.97
2018-02-25T07:09:04.531Z,1019.01
2018-02-25T07:10:04.506Z,1019.02
2018-02-25T07:11:04.499Z,1019.04
2018-02-25T07:12:04.481Z,1019.03
2018-02-25T07:13:25.468Z,1019.01
2018-02-25T07:14:04.454Z,1019.00
2018-02-25T07:15:04.467Z,1019.04
2018-02-25T07:16:04.425Z,1018.97
2018-02-25T07:17:04.410Z,1018.93
2018-02-25T07:18:04.395Z,1018.96
2018-02-25T07:19:25.383Z,1018.99
2018-02-25T07:20:04.372Z,1018.99
2018-02-25T07:21:04.350Z,1018.96
2018-02-25T07:22:04.395Z,1018.94
2018-02-25T07:23:04.332Z,1018.94
2018-02-25T07:24:04.310Z,1018.94
2018-02-25T07:25:25.315Z,1018.89
2018-02-25T07:26:04.292Z,1018.94
2018-02-25T07:27:04.295Z,1018.96
2018-02-25T07:28:04.266Z,1018.91
2018-02-25T07:29:04.246Z,1018.92
2018-02-25T07:30:04.232Z,1018.95
2018-02-25T07:31:25.231Z,1018.90
2018-02-25T07:32:04.206Z,1018.91
2018-02-25T07:33:04.226Z,1018.93
2018-02-25T07:34:04.176Z,1018.94
2018-02-25T07:35:04.159Z,1018.89
2018-02-25T07:36:04.151Z,1018.87
2018-02-25T07:37:25.138Z,1018.88
2018-02-25T07:38:04.144Z,1018.93
2018-02-25T07:39:04.117Z,1018.89
2018-02-25T07:40:04.107Z,1018.93
2018-02-25T07:41:04.085Z,1018.90
2018-02-25T07:42:04.069Z,1018.87
2018-02-25T07:43:25.058Z,1018.90
2018-02-25T07:44:04.041Z,1018.91
2018-02-25T07:45:04.027Z,1018.88
2018-02-25T07:46:04.013Z,1018.95
2018-02-25T07:47:03.997Z,1018.92
2018-02-25T07:48:03.985Z,1018.92
2018-02-25T07:49:24.986Z,1018.94
2018-02-25T07:50:03.960Z,1018.94
2018-02-25T07:51:03.945Z,1018.95
2018-02-25T07:52:03.922Z,1018.96
2018-02-25T07:53:03.920Z,1018.95
2018-02-25T07:54:03.903Z,1018.94
2018-02-25T07:55:24.900Z,1018.91
2018-02-25T07:56:03.876Z,1018.97
2018-02-25T07:57:03.868Z,1018.94
2018-02-25T07:58:03.852Z,1018.94
2018-02-25T07:59:03.883Z,1018.95
2018-02-25T08:00:03.854Z,1018.95
2018-02-25T08:01:24.818Z,1018.94
2018-02-25T08:02:03.798Z,1018.96
2018-02-25T08:03:03.807Z,1018.90
2018-02-25T08:04:03.765Z,1018.92
2018-02-25T08:05:03.755Z,1018.92
2018-02-25T08:06:03.741Z,1018.95
2018-02-25T08:07:24.729Z,1018.91
2018-02-25T08:08:03.712Z,1018.86
2018-02-25T08:09:03.710Z,1018.87
2018-02-25T08:10:03.713Z,1018.87
2018-02-25T08:11:03.671Z,1018.85
2018-02-25T08:12:03.661Z,1018.82
2018-02-25T08:13:24.651Z,1018.78
2018-02-25T08:14:03.640Z,1018.86
2018-02-25T08:15:03.620Z,1018.86
2018-02-25T08:16:03.613Z,1018.83
2018-02-25T08:17:03.599Z,1018.84
2018-02-25T08:18:03.585Z,1018.83
2018-02-25T08:19:24.568Z,1018.84
2018-02-25T08:20:04.321Z,1018.77
2018-02-25T08:21:03.568Z,1018.82
2018-02-25T08:22:03.529Z,1018.85
2018-02-25T08:23:03.518Z,1018.83
2018-02-25T08:24:03.498Z,1018.83
2018-02-25T08:25:24.506Z,1018.82
2018-02-25T08:26:03.483Z,1018.77
2018-02-25T08:27:03.463Z,1018.80
2018-02-25T08:28:03.442Z,1018.80
2018-02-25T08:29:03.434Z,1018.84
2018-02-25T08:30:03.419Z,1018.75
2018-02-25T08:31:24.413Z,1018.81
2018-02-25T08:32:03.385Z,1018.81
2018-02-25T08:33:03.376Z,1018.79
2018-02-25T08:34:03.366Z,1018.85
2018-02-25T08:35:03.349Z,1018.81
2018-02-25T08:36:03.339Z,1018.88
2018-02-25T08:37:24.328Z,1018.85
2018-02-25T08:38:03.316Z,1018.82
2018-02-25T08:39:03.291Z,1018.79
2018-02-25T08:40:03.282Z,1018.84
2018-02-25T08:41:03.272Z,1018.85
2018-02-25T08:42:03.243Z,1018.82
2018-02-25T08:43:24.243Z,1018.91
2018-02-25T08:44:03.226Z,1018.89
2018-02-25T08:45:03.208Z,1018.82
2018-02-25T08:46:03.195Z,1018.80
2018-02-25T08:47:03.186Z,1018.86
2018-02-25T08:48:03.175Z,1018.86
2018-02-25T08:49:24.171Z,1018.80
2018-02-25T08:50:03.138Z,1018.78
2018-02-25T08:51:03.125Z,1018.81
2018-02-25T08:52:03.128Z,1018.81
2018-02-25T08:53:03.103Z,1018.84
2018-02-25T08:54:03.082Z,1018.79
2018-02-25T08:55:24.149Z,1018.82
2018-02-25T08:56:03.055Z,1018.85
2018-02-25T08:57:03.054Z,1018.78
2018-02-25T08:58:03.039Z,1018.82
2018-02-25T08:59:03.024Z,1018.76
2018-02-25T09:00:03.003Z,1018.73
2018-02-25T09:01:23.996Z,1018.73
2018-02-25T09:02:02.990Z,1018.76
2018-02-25T09:03:02.968Z,1018.75
2018-02-25T09:04:02.960Z,1018.79
2018-02-25T09:05:02.938Z,1018.80
2018-02-25T09:06:02.931Z,1018.80
2018-02-25T09:07:23.946Z,1018.78
2018-02-25T09:08:02.902Z,1018.72
2018-02-25T09:09:02.891Z,1018.76
2018-02-25T09:10:02.880Z,1018.79
2018-02-25T09:11:02.865Z,1018.77
2018-02-25T09:12:02.843Z,1018.85
2018-02-25T09:13:23.855Z,1018.81
2018-02-25T09:14:02.815Z,1018.76
2018-02-25T09:15:02.808Z,1018.77
2018-02-25T09:16:02.798Z,1018.82
2018-02-25T09:17:02.782Z,1018.89
2018-02-25T09:18:02.783Z,1018.78
2018-02-25T09:19:23.758Z,1018.87
2018-02-25T09:20:02.757Z,1018.85
2018-02-25T09:21:02.730Z,1018.80
2018-02-25T09:22:02.707Z,1018.84
2018-02-25T09:23:02.710Z,1018.85
2018-02-25T09:24:02.695Z,1018.83
2018-02-25T09:25:23.726Z,1018.84
2018-02-25T09:26:02.659Z,1018.80
2018-02-25T09:27:02.661Z,1018.78
2018-02-25T09:28:02.634Z,1018.78
2018-02-25T09:29:02.616Z,1018.76
2018-02-25T09:30:02.607Z,1018.83
2018-02-25T09:31:23.603Z,1018.79
2018-02-25T09:32:02.582Z,1018.78
2018-02-25T09:33:02.565Z,1018.81
2018-02-25T09:34:02.557Z,1018.74
2018-02-25T09:35:02.558Z,1018.75
2018-02-25T09:36:02.529Z,1018.72
2018-02-25T09:37:23.514Z,1018.68
2018-02-25T09:38:02.506Z,1018.77
2018-02-25T09:39:02.487Z,1018.70
2018-02-25T09:40:02.477Z,1018.73
2018-02-25T09:41:02.462Z,1018.69
2018-02-25T09:42:02.441Z,1018.74
2018-02-25T09:43:23.438Z,1018.75
2018-02-25T09:44:02.428Z,1018.77
2018-02-25T09:45:02.411Z,1018.75
2018-02-25T09:46:02.396Z,1018.75
2018-02-25T09:47:02.382Z,1018.68
2018-02-25T09:48:02.365Z,1018.71
2018-02-25T09:49:23.380Z,1018.73
2018-02-25T09:50:02.336Z,1018.73
2018-02-25T09:51:02.336Z,1018.73
2018-02-25T09:52:02.312Z,1018.78
2018-02-25T09:53:02.307Z,1018.76
2018-02-25T09:54:02.284Z,1018.72
2018-02-25T09:55:23.283Z,1018.76
2018-02-25T09:56:02.265Z,1018.79
2018-02-25T09:57:02.247Z,1018.75
2018-02-25T09:58:02.244Z,1018.73
2018-02-25T09:59:02.225Z,1018.76
2018-02-25T10:00:02.210Z,1018.78
2018-02-25T10:01:23.205Z,1018.68
2018-02-25T10:02:02.181Z,1018.74
2018-02-25T10:03:02.176Z,1018.72
2018-02-25T10:04:02.155Z,1018.73
2018-02-25T10:05:02.193Z,1018.71
2018-02-25T10:06:02.134Z,1018.79
2018-02-25T10:07:23.143Z,1018.73
2018-02-25T10:08:02.107Z,1018.75
2018-02-25T10:09:02.093Z,1018.70
2018-02-25T10:10:02.078Z,1018.71
2018-02-25T10:11:02.091Z,1018.70
2018-02-25T10:12:02.053Z,1018.66
2018-02-25T10:13:23.042Z,1018.73
2018-02-25T10:14:02.022Z,1018.68
2018-02-25T10:15:02.014Z,1018.69
2018-02-25T10:16:02.839Z,1018.74
2018-02-25T10:17:01.996Z,1018.70
2018-02-25T10:18:01.999Z,1018.70
2018-02-25T10:19:22.965Z,1018.67
2018-02-25T10:20:01.940Z,1018.59
2018-02-25T10:21:01.936Z,1018.68
2018-02-25T10:22:01.929Z,1018.69
2018-02-25T10:23:01.911Z,1018.66
2018-02-25T10:24:01.908Z,1018.64
2018-02-25T10:25:23.775Z,1018.64
2018-02-25T10:26:01.886Z,1018.61
2018-02-25T10:27:03.318Z,1018.68
2018-02-25T10:28:01.841Z,1018.68
2018-02-25T10:29:01.831Z,1018.64
2018-02-25T10:30:01.811Z,1018.66
2018-02-25T10:31:22.806Z,1018.65
2018-02-25T10:32:01.847Z,1018.60
2018-02-25T10:33:01.778Z,1018.58
2018-02-25T10:34:01.764Z,1018.58
2018-02-25T10:35:01.752Z,1018.56
2018-02-25T10:36:01.737Z,1018.58
2018-02-25T10:37:22.722Z,1018.52
2018-02-25T10:38:01.710Z,1018.55
2018-02-25T10:39:01.706Z,1018.53
2018-02-25T10:40:01.695Z,1018.50
2018-02-25T10:41:01.665Z,1018.55
2018-02-25T10:42:01.669Z,1018.51
2018-02-25T10:43:22.649Z,1018.52
2018-02-25T10:44:01.630Z,1018.44
2018-02-25T10:45:01.616Z,1018.49
2018-02-25T10:46:01.606Z,1018.42
2018-02-25T10:47:01.596Z,1018.47
2018-02-25T10:48:01.586Z,1018.43
2018-02-25T10:49:22.568Z,1018.34
2018-02-25T10:50:01.552Z,1018.33
2018-02-25T10:51:01.554Z,1018.32
2018-02-25T10:52:01.549Z,1018.32
2018-02-25T10:53:01.516Z,1018.32
2018-02-25T10:54:01.502Z,1018.30
2018-02-25T10:55:22.484Z,1018.30
2018-02-25T10:56:01.482Z,1018.25
2018-02-25T10:57:01.468Z,1018.27
2018-02-25T10:58:01.449Z,1018.29
2018-02-25T10:59:01.437Z,1018.24
2018-02-25T11:00:01.438Z,1018.24
2018-02-25T11:01:22.419Z,1018.20
2018-02-25T11:02:01.411Z,1018.27
2018-02-25T11:03:01.394Z,1018.20
2018-02-25T11:04:01.373Z,1018.17
2018-02-25T11:05:01.358Z,1018.13
2018-02-25T11:06:01.351Z,1018.13
2018-02-25T11:07:22.338Z,1018.11
2018-02-25T11:08:01.324Z,1018.12
2018-02-25T11:09:01.308Z,1018.15
2018-02-25T11:10:01.326Z,1018.09
2018-02-25T11:11:01.290Z,1018.07
2018-02-25T11:12:01.276Z,1018.11
2018-02-25T11:13:22.263Z,1018.10
2018-02-25T11:14:01.245Z,1018.14
2018-02-25T11:15:01.238Z,1018.10
2018-02-25T11:16:01.227Z,1018.06
2018-02-25T11:17:01.217Z,1018.04
2018-02-25T11:18:01.195Z,1018.00
2018-02-25T11:19:22.185Z,1017.98
2018-02-25T11:20:01.170Z,1018.01
2018-02-25T11:21:01.158Z,1017.99
2018-02-25T11:22:01.142Z,1017.98
2018-02-25T11:23:01.134Z,1018.04
2018-02-25T11:24:01.123Z,1018.10
2018-02-25T11:25:22.123Z,1018.10
2018-02-25T11:26:01.132Z,1018.09
2018-02-25T11:27:01.086Z,1018.09
2018-02-25T11:28:01.090Z,1018.09
2018-02-25T11:29:01.083Z,1018.10
2018-02-25T11:30:01.048Z,1018.09
2018-02-25T11:31:22.061Z,1018.08
2018-02-25T11:32:01.044Z,1018.12
2018-02-25T11:33:01.005Z,1018.15
2018-02-25T11:34:01.000Z,1018.12
2018-02-25T11:35:01.007Z,1018.13
2018-02-25T11:36:00.972Z,1018.34
2018-02-25T11:37:21.960Z,1018.44
2018-02-25T11:38:00.951Z,1018.31
2018-02-25T11:39:00.933Z,1018.37
2018-02-25T11:40:00.923Z,1018.27
2018-02-25T11:41:00.904Z,1018.35
2018-02-25T11:42:00.901Z,1018.24
2018-02-25T11:43:21.889Z,1018.31
2018-02-25T11:44:00.873Z,1018.33
2018-02-25T11:45:00.858Z,1018.26
2018-02-25T11:46:00.852Z,1018.23
2018-02-25T11:47:00.846Z,1018.27
2018-02-25T11:48:00.837Z,1018.29
2018-02-25T11:49:21.822Z,1018.27
2018-02-25T11:50:00.801Z,1018.23
2018-02-25T11:51:00.797Z,1018.16
2018-02-25T11:52:00.782Z,1018.19
2018-02-25T11:53:00.770Z,1018.16
2018-02-25T11:54:00.774Z,1018.11
2018-02-25T11:55:21.796Z,1018.12
2018-02-25T11:56:00.740Z,1018.06
2018-02-25T11:57:00.724Z,1018.08
2018-02-25T11:58:00.721Z,1018.09
2018-02-25T11:59:00.714Z,1018.05
2018-02-25T12:00:00.684Z,1017.99
2018-02-25T12:01:21.688Z,1017.97
2018-02-25T12:02:00.698Z,1017.93
2018-02-25T12:03:00.698Z,1017.95
2018-02-25T12:04:00.700Z,1017.85
2018-02-25T12:05:00.633Z,1017.87
2018-02-25T12:06:00.633Z,1017.87